createdAt,value
2019-03-22T00:00:15.207Z,99.08
2019-03-22T00:01:15.186Z,98.67
2019-03-22T00:02:15.167Z,98.57
2019-03-22T00:03:15.158Z,98.67
2019-03-22T00:04:15.138Z,98.57
2019-03-22T00:05:15.185Z,98.77
2019-03-22T00:06:15.189Z,98.97
2019-03-22T00:07:15.170Z,98.77
2019-03-22T00:08:15.131Z,98.62
2019-03-22T00:09:15.140Z,98.62
2019-03-22T00:10:15.080Z,98.32
2019-03-22T00:11:15.063Z,98.15
2019-03-22T00:12:15.064Z,98.52
2019-03-22T00:13:15.080Z,98.21
2019-03-22T00:14:15.033Z,98.68
2019-03-22T00:15:15.049Z,98.72
2019-03-22T00:16:15.009Z,98.52
2019-03-22T00:17:15.016Z,98.27
2019-03-22T00:18:14.981Z,98.27
2019-03-22T00:19:14.974Z,98.06
2019-03-22T00:20:14.978Z,97.96
2019-03-22T00:21:14.958Z,97.55
2019-03-22T00:22:14.949Z,97.50
2019-03-22T00:23:14.949Z,97.81
2019-03-22T00:24:14.923Z,97.61
2019-03-22T00:25:14.901Z,97.50
2019-03-22T00:26:14.894Z,97.50
2019-03-22T00:27:16.741Z,97.19
2019-03-22T00:28:14.893Z,97.30
2019-03-22T00:29:14.863Z,96.94
2019-03-22T00:30:14.863Z,97.15
2019-03-22T00:31:14.867Z,97.05
2019-03-22T00:32:14.832Z,96.53
2019-03-22T00:33:14.847Z,96.59
2019-03-22T00:34:14.837Z,96.69
2019-03-22T00:35:14.840Z,96.69
2019-03-22T00:36:14.781Z,96.48
2019-03-22T00:37:14.793Z,96.23
2019-03-22T00:38:14.757Z,96.28
2019-03-22T00:39:14.763Z,95.87
2019-03-22T00:40:14.765Z,95.31
2019-03-22T00:41:14.744Z,94.90
2019-03-22T00:42:14.721Z,95.10
2019-03-22T00:43:14.750Z,95.21
2019-03-22T00:44:14.690Z,94.90
2019-03-22T00:45:14.697Z,94.90
2019-03-22T00:46:14.697Z,95.01
2019-03-22T00:47:14.666Z,95.27
2019-03-22T00:48:14.691Z,94.24
2019-03-22T00:49:14.635Z,94.45
2019-03-22T00:50:14.632Z,94.76
2019-03-22T00:51:14.616Z,94.65
2019-03-22T00:52:14.606Z,94.76
2019-03-22T00:53:14.605Z,94.76
2019-03-22T00:54:14.699Z,94.55
2019-03-22T00:55:14.595Z,94.34
2019-03-22T00:56:14.566Z,94.24
2019-03-22T00:57:14.554Z,94.55
2019-03-22T00:58:14.540Z,93.42
2019-03-22T00:59:14.531Z,93.63
2019-03-22T01:00:14.527Z,94.10
2019-03-22T01:01:14.504Z,94.30
2019-03-22T01:02:14.514Z,93.59
2019-03-22T01:03:14.487Z,93.07
2019-03-22T01:04:14.565Z,92.50
2019-03-22T01:05:14.482Z,92.25
2019-03-22T01:06:14.495Z,92.55
2019-03-22T01:07:14.446Z,92.97
2019-03-22T01:08:14.427Z,92.46
2019-03-22T01:09:14.431Z,92.25
2019-03-22T01:10:14.419Z,91.84
2019-03-22T01:11:14.405Z,91.74
2019-03-22T01:12:14.408Z,91.74
2019-03-22T01:13:14.367Z,91.53
2019-03-22T01:14:14.472Z,91.63
2019-03-22T01:15:14.354Z,91.53
2019-03-22T01:16:14.340Z,91.53
2019-03-22T01:17:14.412Z,91.42
2019-03-22T01:18:14.315Z,91.53
2019-03-22T01:19:14.322Z,91.53
2019-03-22T01:20:14.290Z,91.63
2019-03-22T01:21:14.288Z,91.53
2019-03-22T01:22:14.274Z,91.49
2019-03-22T01:23:14.270Z,91.74
2019-03-22T01:24:14.253Z,91.94
2019-03-22T01:25:14.243Z,91.84
2019-03-22T01:26:14.226Z,91.63
2019-03-22T01:27:14.220Z,91.42
2019-03-22T01:28:14.266Z,91.42
2019-03-22T01:29:14.199Z,91.33
2019-03-22T01:30:14.180Z,91.28
2019-03-22T01:31:14.178Z,90.87
2019-03-22T01:32:14.157Z,90.91
2019-03-22T01:33:14.158Z,91.18
2019-03-22T01:34:14.173Z,90.97
2019-03-22T01:35:14.134Z,90.87
2019-03-22T01:36:14.115Z,90.87
2019-03-22T01:37:14.114Z,90.56
2019-03-22T01:38:14.104Z,90.46
2019-03-22T01:39:14.128Z,90.36
2019-03-22T01:40:14.074Z,90.67
2019-03-22T01:41:14.075Z,90.56
2019-03-22T01:42:14.060Z,90.46
2019-03-22T01:43:14.039Z,89.95
2019-03-22T01:44:14.039Z,89.95
2019-03-22T01:45:14.073Z,89.84
2019-03-22T01:46:14.005Z,89.95
2019-03-22T01:47:20.745Z,89.70
2019-03-22T01:48:13.988Z,89.50
2019-03-22T01:49:13.985Z,89.29
2019-03-22T01:50:13.987Z,89.64
2019-03-22T01:51:13.952Z,89.33
2019-03-22T01:52:13.954Z,88.88
2019-03-22T01:53:13.935Z,89.09
2019-03-22T01:54:13.925Z,88.57
2019-03-22T01:55:13.923Z,89.19
2019-03-22T01:56:13.924Z,89.29
2019-03-22T01:57:13.892Z,88.68
2019-03-22T01:58:13.867Z,89.09
2019-03-22T01:59:13.861Z,89.39
2019-03-22T02:00:13.856Z,88.78
2019-03-22T02:01:13.856Z,89.29
2019-03-22T02:02:13.832Z,89.19
2019-03-22T02:03:13.840Z,89.29
2019-03-22T02:04:13.814Z,88.98
2019-03-22T02:05:13.790Z,88.98
2019-03-22T02:06:13.796Z,88.98
2019-03-22T02:07:13.801Z,89.09
2019-03-22T02:08:13.791Z,88.98
2019-03-22T02:09:13.766Z,88.88
2019-03-22T02:10:13.783Z,88.88
2019-03-22T02:11:13.731Z,88.57
2019-03-22T02:12:13.735Z,88.84
2019-03-22T02:13:13.715Z,88.37
2019-03-22T02:14:13.692Z,88.74
2019-03-22T02:15:13.681Z,88.78
2019-03-22T02:16:13.717Z,88.64
2019-03-22T02:17:13.672Z,88.88
2019-03-22T02:18:13.663Z,88.43
2019-03-22T02:19:13.674Z,88.23
2019-03-22T02:20:13.626Z,88.43
2019-03-22T02:21:13.625Z,88.43
2019-03-22T02:22:13.621Z,88.43
2019-03-22T02:23:13.607Z,88.47
2019-03-22T02:24:13.586Z,88.37
2019-03-22T02:25:13.578Z,88.47
2019-03-22T02:26:13.621Z,88.33
2019-03-22T02:27:13.625Z,88.33
2019-03-22T02:28:13.538Z,88.23
2019-03-22T02:29:13.538Z,88.57
2019-03-22T02:30:13.549Z,88.33
2019-03-22T02:31:13.530Z,88.43
2019-03-22T02:32:13.498Z,88.43
2019-03-22T02:33:13.502Z,88.43
2019-03-22T02:34:13.494Z,88.12
2019-03-22T02:35:27.362Z,88.37
2019-03-22T02:36:14.462Z,88.68
2019-03-22T02:37:13.441Z,88.43
2019-03-22T02:38:13.433Z,88.33
2019-03-22T02:39:13.489Z,88.43
2019-03-22T02:40:13.419Z,88.43
2019-03-22T02:41:13.407Z,88.33
2019-03-22T02:42:13.395Z,88.33
2019-03-22T02:43:13.382Z,88.33
2019-03-22T02:44:13.379Z,88.43
2019-03-22T02:45:13.374Z,88.53
2019-03-22T02:46:13.348Z,88.27
2019-03-22T02:47:13.345Z,88.47
2019-03-22T02:48:13.317Z,88.27
2019-03-22T02:49:13.304Z,88.37
2019-03-22T02:50:18.505Z,88.02
2019-03-22T02:51:14.315Z,87.92
2019-03-22T02:52:13.282Z,88.12
2019-03-22T02:53:13.284Z,88.06
2019-03-22T02:54:13.250Z,88.02
2019-03-22T02:55:13.262Z,88.23
2019-03-22T02:56:13.399Z,88.23
2019-03-22T02:57:13.229Z,88.23
2019-03-22T02:58:20.580Z,88.23
2019-03-22T02:59:14.199Z,88.23
2019-03-22T03:00:13.213Z,88.23
2019-03-22T03:01:13.172Z,88.23
2019-03-22T03:02:13.239Z,88.23
2019-03-22T03:03:13.175Z,88.27
2019-03-22T03:04:13.159Z,88.02
2019-03-22T03:05:13.182Z,87.96
2019-03-22T03:06:13.125Z,88.12
2019-03-22T03:07:13.130Z,88.12
2019-03-22T03:08:13.108Z,88.02
2019-03-22T03:09:13.092Z,88.02
2019-03-22T03:10:13.101Z,88.12
2019-03-22T03:11:13.074Z,87.92
2019-03-22T03:12:13.058Z,87.71
2019-03-22T03:13:13.133Z,87.82
2019-03-22T03:14:13.038Z,87.61
2019-03-22T03:15:13.041Z,87.82
2019-03-22T03:16:13.033Z,87.82
2019-03-22T03:17:12.998Z,87.82
2019-03-22T03:18:12.996Z,87.82
2019-03-22T03:19:13.004Z,87.82
2019-03-22T03:20:12.985Z,87.82
2019-03-22T03:21:12.963Z,88.02
2019-03-22T03:22:12.957Z,87.61
2019-03-22T03:23:12.928Z,87.61
2019-03-22T03:24:12.922Z,87.82
2019-03-22T03:25:12.927Z,87.61
2019-03-22T03:26:12.920Z,87.92
2019-03-22T03:27:12.896Z,87.82
2019-03-22T03:28:12.878Z,87.71
2019-03-22T03:29:12.874Z,87.82
2019-03-22T03:30:12.863Z,87.71
2019-03-22T03:31:12.839Z,88.06
2019-03-22T03:32:12.866Z,87.92
2019-03-22T03:33:12.820Z,87.85
2019-03-22T03:34:12.822Z,87.71
2019-03-22T03:35:12.848Z,87.76
2019-03-22T03:36:12.789Z,88.02
2019-03-22T03:37:12.780Z,88.12
2019-03-22T03:38:12.768Z,87.82
2019-03-22T03:39:12.785Z,88.12
2019-03-22T03:40:12.742Z,88.02
2019-03-22T03:41:12.748Z,88.02
2019-03-22T03:42:13.828Z,88.17
2019-03-22T03:43:12.720Z,88.17
2019-03-22T03:44:12.712Z,88.02
2019-03-22T03:45:12.698Z,88.17
2019-03-22T03:46:12.703Z,88.02
2019-03-22T03:47:12.689Z,88.12
2019-03-22T03:48:12.692Z,88.02
2019-03-22T03:49:12.684Z,87.85
2019-03-22T03:50:12.657Z,88.12
2019-03-22T03:51:12.633Z,88.02
2019-03-22T03:52:12.669Z,87.92
2019-03-22T03:53:12.615Z,87.92
2019-03-22T03:54:12.600Z,87.82
2019-03-22T03:55:12.589Z,88.02
2019-03-22T03:56:12.590Z,87.82
2019-03-22T03:57:12.563Z,88.27
2019-03-22T03:58:12.569Z,88.06
2019-03-22T03:59:12.555Z,88.27
2019-03-22T04:00:12.526Z,88.17
2019-03-22T04:01:12.517Z,88.37
2019-03-22T04:02:12.539Z,88.47
2019-03-22T04:03:12.518Z,88.37
2019-03-22T04:04:12.485Z,88.47
2019-03-22T04:05:14.510Z,88.57
2019-03-22T04:06:12.457Z,88.27
2019-03-22T04:07:12.459Z,88.57
2019-03-22T04:08:12.446Z,88.37
2019-03-22T04:09:12.436Z,88.78
2019-03-22T04:10:12.421Z,88.68
2019-03-22T04:11:12.422Z,88.37
2019-03-22T04:12:12.393Z,88.37
2019-03-22T04:13:12.389Z,88.17
2019-03-22T04:14:12.366Z,88.57
2019-03-22T04:15:12.370Z,88.57
2019-03-22T04:16:12.370Z,88.57
2019-03-22T04:17:12.333Z,88.37
2019-03-22T04:18:12.327Z,88.27
2019-03-22T04:19:12.326Z,88.57
2019-03-22T04:20:12.329Z,88.68
2019-03-22T04:21:12.293Z,88.37
2019-03-22T04:22:12.287Z,88.37
2019-03-22T04:23:12.268Z,88.27
2019-03-22T04:24:12.278Z,88.27
2019-03-22T04:25:12.314Z,88.47
2019-03-22T04:26:12.282Z,88.17
2019-03-22T04:27:12.226Z,88.57
2019-03-22T04:28:12.236Z,88.37
2019-03-22T04:29:12.213Z,88.57
2019-03-22T04:30:12.198Z,87.96
2019-03-22T04:31:12.209Z,88.37
2019-03-22T04:32:12.171Z,88.17
2019-03-22T04:33:12.191Z,88.37
2019-03-22T04:34:12.152Z,88.43
2019-03-22T04:35:12.196Z,88.47
2019-03-22T04:36:12.225Z,88.57
2019-03-22T04:37:12.145Z,88.37
2019-03-22T04:38:12.737Z,88.57
2019-03-22T04:39:12.105Z,88.37
2019-03-22T04:40:12.127Z,88.37
2019-03-22T04:41:12.075Z,88.47
2019-03-22T04:42:12.076Z,88.57
2019-03-22T04:43:12.078Z,88.37
2019-03-22T04:44:12.059Z,88.37
2019-03-22T04:45:12.736Z,88.47
2019-03-22T04:46:12.018Z,88.37
2019-03-22T04:47:12.006Z,88.57
2019-03-22T04:48:12.033Z,88.78
2019-03-22T04:49:11.985Z,88.47
2019-03-22T04:50:11.970Z,88.57
2019-03-22T04:51:11.960Z,88.37
2019-03-22T04:52:11.979Z,88.57
2019-03-22T04:53:11.958Z,88.47
2019-03-22T04:54:11.927Z,88.78
2019-03-22T04:55:11.921Z,88.37
2019-03-22T04:56:11.907Z,88.57
2019-03-22T04:57:11.896Z,88.43
2019-03-22T04:58:11.940Z,88.57
2019-03-22T04:59:18.854Z,88.23
2019-03-22T05:00:12.866Z,88.23
2019-03-22T05:01:12.791Z,88.12
2019-03-22T05:02:11.844Z,88.17
2019-03-22T05:03:11.827Z,88.23
2019-03-22T05:04:11.847Z,88.23
2019-03-22T05:05:11.819Z,88.23
2019-03-22T05:06:11.834Z,88.33
2019-03-22T05:07:11.808Z,88.02
2019-03-22T05:08:11.785Z,87.92
2019-03-22T05:09:11.795Z,88.27
2019-03-22T05:10:11.764Z,88.12
2019-03-22T05:11:11.797Z,88.33
2019-03-22T05:12:14.170Z,88.12
2019-03-22T05:13:11.727Z,88.12
2019-03-22T05:14:11.725Z,88.47
2019-03-22T05:15:11.699Z,88.53
2019-03-22T05:16:11.696Z,88.17
2019-03-22T05:17:11.707Z,88.53
2019-03-22T05:18:11.676Z,88.12
2019-03-22T05:19:11.662Z,88.23
2019-03-22T05:20:11.650Z,88.23
2019-03-22T05:21:11.638Z,88.06
2019-03-22T05:22:11.656Z,88.02
2019-03-22T05:23:11.645Z,88.17
2019-03-22T05:24:11.649Z,88.02
2019-03-22T05:25:11.601Z,88.12
2019-03-22T05:26:11.602Z,88.23
2019-03-22T05:27:11.572Z,88.12
2019-03-22T05:28:11.568Z,88.17
2019-03-22T05:29:11.577Z,88.23
2019-03-22T05:30:11.545Z,87.92
2019-03-22T05:31:11.528Z,88.23
2019-03-22T05:32:11.528Z,87.82
2019-03-22T05:33:11.515Z,87.82
2019-03-22T05:34:11.529Z,87.82
2019-03-22T05:35:11.485Z,87.61
2019-03-22T05:36:11.475Z,88.02
2019-03-22T05:37:11.492Z,87.61
2019-03-22T05:38:11.463Z,87.82
2019-03-22T05:39:11.455Z,87.71
2019-03-22T05:40:11.448Z,88.02
2019-03-22T05:41:13.696Z,87.92
2019-03-22T05:42:11.410Z,87.82
2019-03-22T05:43:11.454Z,88.12
2019-03-22T05:44:11.398Z,88.02
2019-03-22T05:45:11.377Z,87.82
2019-03-22T05:46:11.373Z,87.82
2019-03-22T05:47:11.383Z,87.92
2019-03-22T05:48:26.316Z,87.82
2019-03-22T05:49:11.365Z,87.92
2019-03-22T05:50:11.322Z,87.82
2019-03-22T05:51:11.321Z,87.82
2019-03-22T05:52:11.315Z,87.71
2019-03-22T05:53:11.296Z,87.82
2019-03-22T05:54:11.273Z,87.71
2019-03-22T05:55:11.297Z,87.82
2019-03-22T05:56:11.261Z,87.92
2019-03-22T05:57:13.777Z,87.82
2019-03-22T05:58:11.227Z,87.71
2019-03-22T05:59:11.220Z,88.02
2019-03-22T06:00:11.218Z,87.82
2019-03-22T06:01:11.218Z,87.92
2019-03-22T06:02:11.204Z,87.71
2019-03-22T06:03:11.190Z,87.82
2019-03-22T06:04:11.166Z,87.61
2019-03-22T06:05:11.162Z,88.02
2019-03-22T06:06:11.249Z,87.82
2019-03-22T06:07:11.212Z,87.92
2019-03-22T06:08:11.138Z,88.02
2019-03-22T06:09:11.121Z,87.71
2019-03-22T06:10:11.108Z,87.82
2019-03-22T06:11:11.089Z,87.41
2019-03-22T06:12:11.099Z,87.41
2019-03-22T06:13:11.138Z,87.92
2019-03-22T06:14:11.055Z,87.57
2019-03-22T06:15:11.055Z,87.51
2019-03-22T06:16:11.034Z,87.61
2019-03-22T06:17:11.021Z,87.26
2019-03-22T06:18:11.034Z,86.79
2019-03-22T06:19:11.035Z,87.57
2019-03-22T06:20:10.994Z,87.06
2019-03-22T06:21:11.000Z,86.85
2019-03-22T06:22:10.996Z,86.75
2019-03-22T06:23:10.980Z,86.65
2019-03-22T06:24:10.960Z,86.55
2019-03-22T06:25:10.955Z,86.34
2019-03-22T06:26:10.931Z,86.55
2019-03-22T06:27:10.911Z,86.75
2019-03-22T06:28:11.777Z,86.44
2019-03-22T06:29:12.276Z,86.44
2019-03-22T06:30:10.887Z,86.55
2019-03-22T06:31:10.894Z,86.44
2019-03-22T06:32:10.871Z,86.55
2019-03-22T06:33:10.855Z,86.34
2019-03-22T06:34:10.843Z,86.44
2019-03-22T06:35:10.930Z,86.44
2019-03-22T06:36:10.841Z,85.89
2019-03-22T06:37:10.812Z,86.34
2019-03-22T06:38:10.799Z,86.10
2019-03-22T06:39:10.787Z,86.24
2019-03-22T06:40:10.780Z,85.79
2019-03-22T06:41:10.793Z,85.31
2019-03-22T06:42:10.776Z,85.52
2019-03-22T06:43:10.741Z,86.34
2019-03-22T06:44:10.729Z,86.34
2019-03-22T06:45:10.764Z,86.24
2019-03-22T06:46:10.731Z,85.93
2019-03-22T06:47:11.249Z,86.04
2019-03-22T06:48:10.696Z,86.24
2019-03-22T06:49:10.672Z,86.14
2019-03-22T06:50:10.658Z,86.34
2019-03-22T06:51:10.655Z,86.65
2019-03-22T06:52:10.642Z,86.85
2019-03-22T06:53:10.671Z,86.55
2019-03-22T06:54:10.631Z,86.65
2019-03-22T06:55:10.613Z,86.44
2019-03-22T06:56:10.600Z,86.34
2019-03-22T06:57:10.582Z,86.44
2019-03-22T06:58:10.588Z,86.44
2019-03-22T06:59:10.589Z,86.44
2019-03-22T07:00:10.571Z,86.24
2019-03-22T07:01:10.542Z,85.93
2019-03-22T07:02:10.530Z,86.24
2019-03-22T07:03:10.518Z,86.24
2019-03-22T07:04:10.511Z,86.44
2019-03-22T07:05:10.528Z,86.24
2019-03-22T07:06:10.487Z,86.34
2019-03-22T07:07:10.491Z,86.34
2019-03-22T07:08:10.459Z,86.04
2019-03-22T07:09:10.460Z,85.83
2019-03-22T07:10:10.434Z,86.14
2019-03-22T07:11:10.458Z,85.83
2019-03-22T07:12:10.426Z,85.93
2019-03-22T07:13:10.412Z,86.14
2019-03-22T07:14:10.393Z,85.83
2019-03-22T07:15:10.476Z,85.79
2019-03-22T07:16:10.405Z,86.04
2019-03-22T07:17:10.370Z,85.69
2019-03-22T07:18:10.360Z,85.48
2019-03-22T07:19:10.350Z,85.38
2019-03-22T07:20:10.347Z,85.48
2019-03-22T07:21:10.335Z,85.69
2019-03-22T07:22:10.331Z,85.58
2019-03-22T07:23:10.299Z,85.69
2019-03-22T07:24:10.295Z,85.38
2019-03-22T07:25:10.320Z,85.69
2019-03-22T07:26:10.270Z,85.48
2019-03-22T07:27:10.278Z,85.79
2019-03-22T07:28:10.251Z,85.89
2019-03-22T07:29:10.271Z,85.79
2019-03-22T07:30:18.628Z,85.79
2019-03-22T07:31:11.241Z,85.89
2019-03-22T07:32:10.205Z,85.79
2019-03-22T07:33:10.211Z,85.79
2019-03-22T07:34:10.175Z,85.79
2019-03-22T07:35:10.204Z,85.58
2019-03-22T07:36:10.186Z,85.69
2019-03-22T07:37:10.146Z,85.79
2019-03-22T07:38:10.134Z,85.79
2019-03-22T07:39:10.124Z,85.28
2019-03-22T07:40:10.128Z,85.69
2019-03-22T07:41:10.121Z,85.38
2019-03-22T07:42:10.124Z,85.48
2019-03-22T07:43:10.087Z,85.58
2019-03-22T07:44:10.067Z,85.48
2019-03-22T07:45:10.075Z,85.58
2019-03-22T07:46:10.047Z,85.48
2019-03-22T07:47:10.050Z,85.58
2019-03-22T07:48:10.084Z,85.44
2019-03-22T07:49:12.831Z,85.64
2019-03-22T07:50:10.005Z,84.42
2019-03-22T07:51:09.992Z,84.22
2019-03-22T07:52:09.989Z,84.83
2019-03-22T07:53:09.966Z,84.11
2019-03-22T07:54:10.002Z,84.11
2019-03-22T07:55:09.941Z,84.11
2019-03-22T07:56:09.938Z,84.17
2019-03-22T07:57:09.966Z,83.87
2019-03-22T07:58:09.925Z,84.48
2019-03-22T07:59:10.094Z,83.25
2019-03-22T08:00:09.920Z,84.07
2019-03-22T08:01:09.936Z,83.76
2019-03-22T08:02:09.914Z,83.46
2019-03-22T08:03:09.858Z,83.81
2019-03-22T08:04:09.865Z,84.48
2019-03-22T08:05:09.842Z,84.28
2019-03-22T08:06:09.844Z,83.97
2019-03-22T08:07:09.830Z,83.25
2019-03-22T08:08:09.879Z,83.46
2019-03-22T08:09:09.836Z,83.46
2019-03-22T08:10:09.810Z,83.56
2019-03-22T08:11:09.820Z,82.75
2019-03-22T08:12:09.759Z,83.46
2019-03-22T08:13:09.771Z,83.25
2019-03-22T08:14:09.821Z,83.87
2019-03-22T08:15:09.751Z,84.31
2019-03-22T08:16:20.849Z,83.87
2019-03-22T08:17:09.726Z,84.11
2019-03-22T08:18:09.688Z,83.66
2019-03-22T08:19:09.777Z,84.28
2019-03-22T08:20:09.683Z,83.60
2019-03-22T08:21:09.717Z,84.58
2019-03-22T08:22:09.679Z,83.97
2019-03-22T08:23:09.643Z,84.07
2019-03-22T08:24:09.626Z,83.46
2019-03-22T08:25:09.651Z,83.36
2019-03-22T08:26:09.633Z,83.05
2019-03-22T08:27:09.600Z,83.46
2019-03-22T08:28:09.678Z,83.87
2019-03-22T08:29:09.590Z,83.52
2019-03-22T08:30:09.616Z,83.36
2019-03-22T08:31:09.569Z,83.15
2019-03-22T08:32:09.594Z,82.84
2019-03-22T08:33:09.528Z,83.87
2019-03-22T08:34:09.600Z,83.25
2019-03-22T08:35:09.536Z,83.66
2019-03-22T08:36:09.522Z,83.36
2019-03-22T08:37:09.486Z,83.81
2019-03-22T08:38:09.517Z,84.28
2019-03-22T08:39:09.490Z,83.66
2019-03-22T08:40:09.470Z,83.56
2019-03-22T08:41:09.440Z,84.31
2019-03-22T08:42:09.494Z,83.97
2019-03-22T08:43:09.448Z,84.28
2019-03-22T08:44:09.435Z,83.70
2019-03-22T08:45:11.407Z,84.52
2019-03-22T08:46:09.400Z,84.22
2019-03-22T08:47:09.399Z,84.28
2019-03-22T08:48:09.395Z,83.97
2019-03-22T08:49:09.816Z,84.28
2019-03-22T08:50:09.353Z,83.36
2019-03-22T08:51:09.356Z,83.66
2019-03-22T08:52:09.389Z,83.15
2019-03-22T08:53:09.303Z,83.76
2019-03-22T08:54:09.376Z,83.15
2019-03-22T08:55:09.301Z,83.76
2019-03-22T08:56:09.317Z,83.56
2019-03-22T08:57:09.318Z,84.07
2019-03-22T08:58:09.369Z,84.11
2019-03-22T08:59:09.249Z,83.87
2019-03-22T09:00:09.282Z,83.97
2019-03-22T09:01:09.258Z,83.52
2019-03-22T09:02:09.245Z,82.84
2019-03-22T09:03:09.235Z,83.15
2019-03-22T09:04:09.192Z,83.15
2019-03-22T09:05:09.168Z,83.11
2019-03-22T09:06:09.165Z,82.91
2019-03-22T09:07:09.217Z,82.91
2019-03-22T09:08:09.162Z,82.67
2019-03-22T09:09:09.171Z,81.85
2019-03-22T09:10:09.175Z,82.29
2019-03-22T09:11:09.134Z,82.26
2019-03-22T09:12:09.131Z,82.05
2019-03-22T09:13:09.196Z,81.74
2019-03-22T09:14:09.079Z,82.05
2019-03-22T09:15:09.108Z,82.15
2019-03-22T09:16:09.073Z,81.30
2019-03-22T09:17:09.062Z,81.13
2019-03-22T09:18:09.042Z,81.34
2019-03-22T09:19:09.078Z,81.24
2019-03-22T09:20:09.036Z,81.54
2019-03-22T09:21:09.028Z,81.88
2019-03-22T09:22:09.286Z,82.29
2019-03-22T09:23:09.006Z,82.20
2019-03-22T09:24:09.001Z,82.50
2019-03-22T09:25:08.974Z,82.75
2019-03-22T09:26:08.967Z,82.75
2019-03-22T09:27:08.964Z,83.46
2019-03-22T09:28:10.356Z,83.42
2019-03-22T09:29:08.929Z,83.11
2019-03-22T09:30:08.996Z,83.42
2019-03-22T09:31:10.771Z,83.11
2019-03-22T09:32:08.895Z,81.99
2019-03-22T09:33:08.942Z,82.26
2019-03-22T09:34:08.927Z,82.36
2019-03-22T09:35:08.851Z,82.01
2019-03-22T09:36:08.830Z,81.60
2019-03-22T09:37:09.165Z,81.40
2019-03-22T09:38:13.205Z,81.20
2019-03-22T09:39:08.800Z,80.28
2019-03-22T09:40:08.853Z,80.62
2019-03-22T09:41:08.826Z,81.03
2019-03-22T09:42:08.801Z,81.48
2019-03-22T09:43:08.778Z,81.99
2019-03-22T09:44:08.765Z,81.99
2019-03-22T09:45:08.831Z,82.29
2019-03-22T09:46:08.859Z,82.50
2019-03-22T09:47:08.863Z,82.60
2019-03-22T09:48:08.720Z,82.75
2019-03-22T09:49:08.705Z,82.75
2019-03-22T09:50:08.711Z,82.70
2019-03-22T09:51:08.712Z,82.50
2019-03-22T09:52:08.671Z,82.70
2019-03-22T09:53:08.658Z,82.29
2019-03-22T09:54:08.640Z,82.50
2019-03-22T09:55:13.993Z,81.88
2019-03-22T09:56:09.685Z,82.20
2019-03-22T09:57:08.622Z,82.05
2019-03-22T09:58:08.583Z,82.05
2019-03-22T09:59:08.585Z,81.74
2019-03-22T10:00:08.581Z,81.74
2019-03-22T10:01:08.619Z,81.74
2019-03-22T10:02:08.551Z,81.40
2019-03-22T10:03:08.620Z,81.10
2019-03-22T10:04:08.536Z,81.10
2019-03-22T10:05:08.520Z,80.58
2019-03-22T10:06:08.547Z,80.58
2019-03-22T10:07:08.499Z,80.18
2019-03-22T10:08:08.510Z,80.18
2019-03-22T10:09:08.542Z,80.07
2019-03-22T10:10:08.470Z,79.87
2019-03-22T10:11:08.466Z,80.07
2019-03-22T10:12:08.482Z,80.28
2019-03-22T10:13:08.558Z,80.28
2019-03-22T10:14:08.433Z,80.48
2019-03-22T10:15:08.392Z,80.83
2019-03-22T10:16:08.393Z,81.03
2019-03-22T10:17:08.427Z,82.13
2019-03-22T10:18:08.492Z,82.84
2019-03-22T10:19:08.375Z,83.56
2019-03-22T10:20:08.392Z,83.46
2019-03-22T10:21:21.513Z,83.25
2019-03-22T10:22:09.356Z,83.36
2019-03-22T10:23:08.339Z,83.56
2019-03-22T10:24:08.368Z,82.84
2019-03-22T10:25:08.361Z,83.15
2019-03-22T10:26:08.310Z,82.91
2019-03-22T10:27:08.270Z,83.25
2019-03-22T10:28:08.270Z,82.64
2019-03-22T10:29:08.261Z,83.46
2019-03-22T10:30:08.333Z,83.15
2019-03-22T10:31:08.336Z,82.91
2019-03-22T10:32:08.241Z,82.91
2019-03-22T10:34:04.531Z,82.40
2019-03-22T10:35:04.544Z,82.84
2019-03-22T10:36:04.482Z,82.50
2019-03-22T10:37:04.502Z,82.54
2019-03-22T10:38:06.337Z,82.54
2019-03-22T10:39:05.440Z,82.64
2019-03-22T10:40:04.502Z,82.95
2019-03-22T10:41:04.496Z,83.01
2019-03-22T10:42:04.480Z,82.36
2019-03-22T10:43:04.443Z,81.38
2019-03-22T10:44:04.542Z,81.79
2019-03-22T10:45:04.387Z,81.85
2019-03-22T10:46:04.411Z,81.85
2019-03-22T10:47:04.401Z,81.71
2019-03-22T10:48:04.414Z,80.48
2019-03-22T10:49:04.383Z,80.69
2019-03-22T10:50:04.444Z,80.48
2019-03-22T10:51:04.340Z,80.48
2019-03-22T10:52:04.689Z,80.24
2019-03-22T10:53:04.405Z,79.12
2019-03-22T10:54:04.435Z,79.77
2019-03-22T10:55:23.508Z,79.97
2019-03-22T10:56:05.257Z,80.48
2019-03-22T10:57:04.256Z,80.28
2019-03-22T10:58:04.287Z,79.97
2019-03-22T10:59:04.265Z,80.38
2019-03-22T11:00:04.232Z,81.24
2019-03-22T11:01:04.214Z,81.88
2019-03-22T11:02:07.456Z,82.29
2019-03-22T11:03:04.192Z,82.84
2019-03-22T11:05:04.464Z,82.95
2019-03-22T11:06:04.175Z,82.91
2019-03-22T11:07:04.183Z,82.75
2019-03-22T11:08:04.133Z,83.15
2019-03-22T11:09:04.127Z,83.15
2019-03-22T11:10:04.122Z,83.66
2019-03-22T11:11:04.135Z,83.36
2019-03-22T11:12:11.866Z,83.36
2019-03-22T11:13:05.145Z,82.84
2019-03-22T11:14:04.103Z,83.01
2019-03-22T11:15:04.065Z,83.01
2019-03-22T11:16:04.082Z,82.40
2019-03-22T11:17:04.080Z,82.29
2019-03-22T11:18:04.031Z,82.40
2019-03-22T11:19:04.025Z,82.40
2019-03-22T11:20:04.003Z,82.50
2019-03-22T11:21:05.491Z,82.50
2019-03-22T11:22:04.002Z,82.15
2019-03-22T11:23:04.017Z,81.65
2019-03-22T11:24:03.964Z,80.99
2019-03-22T11:25:04.914Z,80.58
2019-03-22T11:26:04.604Z,80.62
2019-03-22T11:27:03.951Z,81.17
2019-03-22T11:28:03.911Z,80.97
2019-03-22T11:29:03.952Z,81.17
2019-03-22T11:30:03.911Z,81.24
2019-03-22T11:31:04.988Z,80.62
2019-03-22T11:32:12.310Z,80.52
2019-03-22T11:33:04.876Z,80.52
2019-03-22T11:34:03.902Z,80.21
2019-03-22T11:35:03.887Z,80.42
2019-03-22T11:36:03.842Z,80.38
2019-03-22T11:37:03.820Z,80.42
2019-03-22T11:38:03.816Z,79.32
2019-03-22T11:39:03.801Z,78.95
2019-03-22T11:40:03.828Z,78.85
2019-03-22T11:41:03.792Z,79.57
2019-03-22T11:42:03.765Z,79.46
2019-03-22T11:43:08.503Z,79.52
2019-03-22T11:44:04.750Z,78.37
2019-03-22T11:45:03.740Z,78.16
2019-03-22T11:46:03.739Z,77.62
2019-03-22T11:47:03.707Z,76.90
2019-03-22T11:48:03.698Z,77.25
2019-03-22T11:49:03.707Z,78.09
2019-03-22T11:50:03.710Z,78.16
2019-03-22T11:51:03.706Z,78.09
2019-03-22T11:52:03.665Z,78.41
2019-03-22T11:53:03.646Z,79.02
2019-03-22T11:54:03.645Z,78.57
2019-03-22T11:55:03.627Z,78.27
2019-03-22T11:56:03.616Z,78.95
2019-03-22T11:57:03.906Z,79.77
2019-03-22T11:58:03.603Z,80.07
2019-03-22T11:59:03.577Z,79.97
2019-03-22T12:00:03.568Z,80.38
2019-03-22T12:01:03.559Z,80.38
2019-03-22T12:02:03.599Z,80.32
2019-03-22T12:03:03.542Z,80.97
2019-03-22T12:04:03.539Z,81.27
2019-03-22T12:05:03.515Z,81.88
2019-03-22T12:06:03.579Z,82.13
2019-03-22T12:07:03.502Z,82.29
2019-03-22T12:08:03.512Z,81.88
2019-03-22T12:09:03.482Z,81.48
2019-03-22T12:10:03.496Z,81.24
2019-03-22T12:11:03.486Z,81.20
2019-03-22T12:12:03.438Z,80.58
2019-03-22T12:13:03.446Z,79.46
2019-03-22T12:14:03.422Z,79.77
2019-03-22T12:15:03.411Z,80.52
2019-03-22T12:16:03.406Z,80.93
2019-03-22T12:17:03.407Z,80.83
2019-03-22T12:18:03.388Z,80.62
2019-03-22T12:19:03.419Z,80.73
2019-03-22T12:20:03.354Z,80.38
2019-03-22T12:21:03.363Z,79.87
2019-03-22T12:22:03.332Z,79.36
2019-03-22T12:23:03.322Z,78.81
2019-03-22T12:24:03.313Z,78.20
2019-03-22T12:25:03.326Z,77.75
2019-03-22T12:26:03.316Z,78.30
2019-03-22T12:27:03.283Z,77.79
2019-03-22T12:28:03.275Z,78.00
2019-03-22T12:29:03.261Z,77.96
2019-03-22T12:30:03.288Z,78.27
2019-03-22T12:31:03.234Z,77.25
2019-03-22T12:32:03.243Z,77.14
2019-03-22T12:33:03.210Z,76.70
2019-03-22T12:34:04.248Z,76.05
2019-03-22T12:35:03.190Z,75.78
2019-03-22T12:36:03.223Z,74.93
2019-03-22T12:37:03.166Z,75.51
2019-03-22T12:38:03.174Z,74.69
2019-03-22T12:39:03.145Z,74.58
2019-03-22T12:40:03.135Z,74.62
2019-03-22T12:41:03.148Z,74.76
2019-03-22T12:42:03.107Z,75.92
2019-03-22T12:43:03.098Z,76.32
2019-03-22T12:44:03.118Z,77.75
2019-03-22T12:45:03.080Z,78.00
2019-03-22T12:46:03.095Z,77.48
2019-03-22T12:47:03.123Z,77.65
2019-03-22T12:48:03.043Z,77.55
2019-03-22T12:49:03.057Z,77.11
2019-03-22T12:50:03.017Z,76.70
2019-03-22T12:51:03.013Z,76.05
2019-03-22T12:52:03.034Z,75.27
2019-03-22T12:53:02.991Z,75.07
2019-03-22T12:54:02.988Z,76.09